createdAt,value
2017-07-19T00:00:04.954Z,78.53
2017-07-19T00:01:04.930Z,79.11
2017-07-19T00:02:04.918Z,79.02
2017-07-19T00:03:04.893Z,79.36
2017-07-19T00:04:04.870Z,79.11
2017-07-19T00:05:04.867Z,79.3
2017-07-19T00:06:04.885Z,79.17
2017-07-19T00:07:04.814Z,79.27
2017-07-19T00:08:04.796Z,79.11
2017-07-19T00:09:04.783Z,78.98
2017-07-19T00:10:04.754Z,79.69
2017-07-19T00:11:04.733Z,79.75
2017-07-19T00:12:04.716Z,79.5
2017-07-19T00:13:04.691Z,79.46
2017-07-19T00:14:04.678Z,79.46
2017-07-19T00:15:04.674Z,79.75
2017-07-19T00:16:04.635Z,79.36
2017-07-19T00:17:04.616Z,79.84
2017-07-19T00:18:04.600Z,79.75
2017-07-19T00:19:04.577Z,79.46
2017-07-19T00:20:04.560Z,79.65
2017-07-19T00:21:04.533Z,79.75
2017-07-19T00:22:04.520Z,79.75
2017-07-19T00:23:04.491Z,79.65
2017-07-19T00:24:04.479Z,79.36
2017-07-19T00:25:04.461Z,79.46
2017-07-19T00:26:04.442Z,80.13
2017-07-19T00:27:04.420Z,79.94
2017-07-19T00:28:04.398Z,79.75
2017-07-19T00:29:04.377Z,79.75
2017-07-19T00:30:04.358Z,79.84
2017-07-19T00:31:04.339Z,79.84
2017-07-19T00:32:04.318Z,79.75
2017-07-19T00:33:04.300Z,79.94
2017-07-19T00:34:04.278Z,79.75
2017-07-19T00:35:04.264Z,79.84
2017-07-19T00:36:04.243Z,79.94
2017-07-19T00:37:04.223Z,79.75
2017-07-19T00:38:04.205Z,79.75
2017-07-19T00:39:04.180Z,79.94
2017-07-19T00:40:04.168Z,79.75
2017-07-19T00:41:04.139Z,79.75
2017-07-19T00:42:04.128Z,79.75
2017-07-19T00:43:04.100Z,79.84
2017-07-19T00:44:04.134Z,79.55
2017-07-19T00:45:04.069Z,79.55
2017-07-19T00:46:03.738Z,79.75
2017-07-19T00:47:04.025Z,79.65
2017-07-19T00:48:04.000Z,79.94
2017-07-19T00:49:03.983Z,80.13
2017-07-19T00:50:03.964Z,80.13
2017-07-19T00:51:03.944Z,79.94
2017-07-19T00:52:03.916Z,79.75
2017-07-19T00:53:03.906Z,80.04
2017-07-19T00:54:03.889Z,79.94
2017-07-19T00:55:03.865Z,80.51
2017-07-19T00:56:03.841Z,80.22
2017-07-19T00:57:03.825Z,80.32
2017-07-19T00:58:03.803Z,80.51
2017-07-19T00:59:03.780Z,80.51
2017-07-19T01:00:03.768Z,80.61
2017-07-19T01:01:03.740Z,80.42
2017-07-19T01:02:03.723Z,80.61
2017-07-19T01:03:03.706Z,80.22
2017-07-19T01:04:03.685Z,80.19
2017-07-19T01:05:03.663Z,80.38
2017-07-19T01:06:03.642Z,80.47
2017-07-19T01:07:03.623Z,80.28
2017-07-19T01:08:03.602Z,80.42
2017-07-19T01:09:03.833Z,80.61
2017-07-19T01:10:03.560Z,80.38
2017-07-19T01:11:03.242Z,80.96
2017-07-19T01:12:03.523Z,80.47
2017-07-19T01:13:03.500Z,80.38
2017-07-19T01:14:03.481Z,80.61
2017-07-19T01:15:03.459Z,81.05
2017-07-19T01:16:03.446Z,80.96
2017-07-19T01:17:03.421Z,80.76
2017-07-19T01:18:03.402Z,80.76
2017-07-19T01:19:03.385Z,80.99
2017-07-19T01:20:03.360Z,80.76
2017-07-19T01:21:03.346Z,81.05
2017-07-19T01:22:03.323Z,80.76
2017-07-19T01:23:03.315Z,80.96
2017-07-19T01:24:03.282Z,81.05
2017-07-19T01:25:03.263Z,81.05
2017-07-19T01:26:03.240Z,80.76
2017-07-19T01:27:03.331Z,80.86
2017-07-19T01:28:03.204Z,80.96
2017-07-19T01:29:03.182Z,80.66
2017-07-19T01:30:03.167Z,80.96
2017-07-19T01:31:03.152Z,80.38
2017-07-19T01:32:03.125Z,81.05
2017-07-19T01:33:03.106Z,80.76
2017-07-19T01:34:03.102Z,80.86
2017-07-19T01:35:03.064Z,81.05
2017-07-19T01:36:03.070Z,80.47
2017-07-19T01:37:03.023Z,80.76
2017-07-19T01:38:03.004Z,80.96
2017-07-19T01:39:02.981Z,81.05
2017-07-19T01:40:02.964Z,80.96
2017-07-19T01:41:02.942Z,80.09
2017-07-19T01:42:02.923Z,80.47
2017-07-19T01:43:02.903Z,80.66
2017-07-19T01:44:02.884Z,80.76
2017-07-19T01:45:02.863Z,81.05
2017-07-19T01:46:02.849Z,80.96
2017-07-19T01:47:02.825Z,80.76
2017-07-19T01:48:02.803Z,80.96
2017-07-19T01:49:02.780Z,80.86
2017-07-19T01:50:02.765Z,80.76
2017-07-19T01:51:02.741Z,81.05
2017-07-19T01:52:02.718Z,80.57
2017-07-19T01:53:02.704Z,80.96
2017-07-19T01:54:02.682Z,80.66
2017-07-19T01:55:02.663Z,81.05
2017-07-19T01:56:02.642Z,80.57
2017-07-19T01:57:02.682Z,80.86
2017-07-19T01:58:02.603Z,80.96
2017-07-19T01:59:02.583Z,80.57
2017-07-19T02:00:02.569Z,80.38
2017-07-19T02:01:02.539Z,80.66
2017-07-19T02:02:02.525Z,80.66
2017-07-19T02:03:02.200Z,80.86
2017-07-19T02:04:02.489Z,80.57
2017-07-19T02:05:02.465Z,80.96
2017-07-19T02:06:02.439Z,80.47
2017-07-19T02:07:02.424Z,80.86
2017-07-19T02:08:02.403Z,80.76
2017-07-19T02:09:02.380Z,81.05
2017-07-19T02:10:02.375Z,80.96
2017-07-19T02:11:02.347Z,81.24
2017-07-19T02:12:02.320Z,80.76
2017-07-19T02:13:02.301Z,80.96
2017-07-19T02:14:02.282Z,80.86
2017-07-19T02:15:02.273Z,80.57
2017-07-19T02:16:02.242Z,80.76
2017-07-19T02:17:02.227Z,80.47
2017-07-19T02:18:02.209Z,81.24
2017-07-19T02:19:02.177Z,81.15
2017-07-19T02:20:02.165Z,80.96
2017-07-19T02:21:02.139Z,80.96
2017-07-19T02:22:02.124Z,81.05
2017-07-19T02:23:02.123Z,81.15
2017-07-19T02:24:02.084Z,80.96
2017-07-19T02:25:02.069Z,80.96
2017-07-19T02:26:02.044Z,81.05
2017-07-19T02:27:02.034Z,80.86
2017-07-19T02:28:02.058Z,81.05
2017-07-19T02:29:01.980Z,81.15
2017-07-19T02:30:01.961Z,80.86
2017-07-19T02:31:01.943Z,80.96
2017-07-19T02:32:01.924Z,81.34
2017-07-19T02:33:01.903Z,81.63
2017-07-19T02:34:01.878Z,81.24
2017-07-19T02:35:01.876Z,81.24
2017-07-19T02:36:01.835Z,81.43
2017-07-19T02:37:01.523Z,81.05
2017-07-19T02:38:01.798Z,81.43
2017-07-19T02:39:01.786Z,81.63
2017-07-19T02:40:01.761Z,81.53
2017-07-19T02:41:01.741Z,81.72
2017-07-19T02:42:01.724Z,81.43
2017-07-19T02:43:01.699Z,81.53
2017-07-19T02:44:01.738Z,81.53
2017-07-19T02:45:01.711Z,81.34
2017-07-19T02:46:01.659Z,81.43
2017-07-19T02:47:01.618Z,81.63
2017-07-19T02:48:01.602Z,81.43
2017-07-19T02:49:01.587Z,81.53
2017-07-19T02:50:01.605Z,81.72
2017-07-19T02:51:01.538Z,81.53
2017-07-19T02:52:01.527Z,81.53
2017-07-19T02:53:01.508Z,81.53
2017-07-19T02:54:01.182Z,81.63
2017-07-19T02:55:01.462Z,81.72
2017-07-19T02:56:01.439Z,81.63
2017-07-19T02:57:01.426Z,81.43
2017-07-19T02:58:01.400Z,81.43
2017-07-19T02:59:01.380Z,81.43
2017-07-19T03:00:01.360Z,81.53
2017-07-19T03:01:01.337Z,81.53
2017-07-19T03:02:01.318Z,81.43
2017-07-19T03:03:01.298Z,81.43
2017-07-19T03:04:01.334Z,81.24
2017-07-19T03:05:01.262Z,81.15
2017-07-19T03:06:01.239Z,81.43
2017-07-19T03:07:01.224Z,81.15
2017-07-19T03:08:01.197Z,81.49
2017-07-19T03:09:01.181Z,81.53
2017-07-19T03:10:01.211Z,81.15
2017-07-19T03:11:01.139Z,81.05
2017-07-19T03:12:01.117Z,81.24
2017-07-19T03:13:00.796Z,82.1
2017-07-19T03:14:01.077Z,81.53
2017-07-19T03:15:01.060Z,81.63
2017-07-19T03:16:01.042Z,81.97
2017-07-19T03:17:01.018Z,81.87
2017-07-19T03:18:00.996Z,82.07
2017-07-19T03:19:00.982Z,81.78
2017-07-19T03:20:00.972Z,82.16
2017-07-19T03:21:00.951Z,82.16
2017-07-19T03:22:00.918Z,81.68
2017-07-19T03:23:00.894Z,82.07
2017-07-19T03:24:00.881Z,81.97
2017-07-19T03:25:00.555Z,82.07
2017-07-19T03:26:00.535Z,82.07
2017-07-19T03:27:00.817Z,81.97
2017-07-19T03:28:00.795Z,82.45
2017-07-19T03:29:00.775Z,82.16
2017-07-19T03:30:00.753Z,82.16
2017-07-19T03:31:00.746Z,82.26
2017-07-19T03:32:00.714Z,82.35
2017-07-19T03:33:00.698Z,82.16
2017-07-19T03:34:00.695Z,82.26
2017-07-19T03:35:00.655Z,82.35
2017-07-19T03:36:00.636Z,81.87
2017-07-19T03:37:00.667Z,81.97
2017-07-19T03:38:00.594Z,81.92
2017-07-19T03:39:00.578Z,82.07
2017-07-19T03:40:00.257Z,81.87
2017-07-19T03:41:00.536Z,82.1
2017-07-19T03:42:00.517Z,82.1
2017-07-19T03:43:00.492Z,81.92
2017-07-19T03:44:00.474Z,81.63
2017-07-19T03:45:00.457Z,81.63
2017-07-19T03:46:00.450Z,82.01
2017-07-19T03:47:00.411Z,82.1
2017-07-19T03:48:00.390Z,81.53
2017-07-19T03:49:00.386Z,81.49
2017-07-19T03:50:00.365Z,81.53
2017-07-19T03:51:00.338Z,81.24
2017-07-19T03:52:00.313Z,81.34
2017-07-19T03:53:00.302Z,81.63
2017-07-19T03:54:00.280Z,81.63
2017-07-19T03:55:00.249Z,81.63
2017-07-19T03:56:00.228Z,81.63
2017-07-19T03:57:00.215Z,81.82
2017-07-19T03:58:00.186Z,81.53
2017-07-19T03:59:00.170Z,81.15
2017-07-19T04:00:00.153Z,81.34
2017-07-19T04:01:00.130Z,80.96
2017-07-19T04:02:00.113Z,80.96
2017-07-19T04:03:00.088Z,80.96
2017-07-19T04:04:00.076Z,80.96
2017-07-19T04:05:00.052Z,80.76
2017-07-19T04:06:00.037Z,80.66
2017-07-19T04:07:00.012Z,80.47
2017-07-19T04:07:59.988Z,80.86
2017-07-19T04:08:59.678Z,80.38
2017-07-19T04:09:59.948Z,80.57
2017-07-19T04:10:59.930Z,80.76
2017-07-19T04:11:59.904Z,81.05
2017-07-19T04:12:59.891Z,80.76
2017-07-19T04:13:59.868Z,80.38
2017-07-19T04:14:59.854Z,80.32
2017-07-19T04:15:59.830Z,80.32
2017-07-19T04:16:59.811Z,79.94
2017-07-19T04:17:59.797Z,80.22
2017-07-19T04:18:59.772Z,79.55
2017-07-19T04:19:59.759Z,79.27
2017-07-19T04:20:59.732Z,79.11
2017-07-19T04:21:59.716Z,78.83
2017-07-19T04:22:59.698Z,78.44
2017-07-19T04:23:59.670Z,78.63
2017-07-19T04:24:59.651Z,78.34
2017-07-19T04:25:59.641Z,77.86
2017-07-19T04:26:59.616Z,78.06
2017-07-19T04:27:59.604Z,78.06
2017-07-19T04:28:59.573Z,78.15
2017-07-19T04:29:59.556Z,77.86
2017-07-19T04:30:59.533Z,77.76
2017-07-19T04:31:59.514Z,78.63
2017-07-19T04:32:59.497Z,77.86
2017-07-19T04:33:59.480Z,77.96
2017-07-19T04:34:59.454Z,78.34
2017-07-19T04:35:59.451Z,77.71
2017-07-19T04:36:59.418Z,77.23
2017-07-19T04:37:59.399Z,77.42
2017-07-19T04:38:59.381Z,77.13
2017-07-19T04:39:59.366Z,77.04
2017-07-19T04:40:59.557Z,76.84
2017-07-19T04:41:59.324Z,76.46
2017-07-19T04:42:59.312Z,76.36
2017-07-19T04:43:59.310Z,76.26
2017-07-19T04:44:59.266Z,76.07
2017-07-19T04:45:59.255Z,76.46
2017-07-19T04:46:59.228Z,76.46
2017-07-19T04:47:59.211Z,76.46
2017-07-19T04:48:59.192Z,76.46
2017-07-19T04:49:59.168Z,76.26
2017-07-19T04:50:59.159Z,76.46
2017-07-19T04:51:59.138Z,76.36
2017-07-19T04:52:59.112Z,75.63
2017-07-19T04:53:59.095Z,75.15
2017-07-19T04:54:59.073Z,75.44
2017-07-19T04:55:59.063Z,74.57
2017-07-19T04:56:58.737Z,74.57
2017-07-19T04:57:59.018Z,73.99
2017-07-19T04:58:58.995Z,73.94
2017-07-19T04:59:58.978Z,73.65
2017-07-19T05:00:58.663Z,73.46
2017-07-19T05:01:58.639Z,73.07
2017-07-19T05:02:58.924Z,72.43
2017-07-19T05:03:58.908Z,72.81
2017-07-19T05:04:58.886Z,72.27
2017-07-19T05:05:58.876Z,71.6
2017-07-19T05:06:58.907Z,71.12
2017-07-19T05:07:58.836Z,70.25
2017-07-19T05:08:58.815Z,70.92
2017-07-19T05:09:58.800Z,70.25
2017-07-19T05:10:58.781Z,70
2017-07-19T05:11:58.776Z,69.42
2017-07-19T05:12:58.740Z,69.51
2017-07-19T05:13:58.728Z,69.13
2017-07-19T05:14:58.709Z,69.13
2017-07-19T05:15:58.691Z,68.87
2017-07-19T05:16:58.671Z,68.19
2017-07-19T05:17:58.655Z,68.29
2017-07-19T05:18:58.637Z,67.91
2017-07-19T05:19:58.621Z,68.1
2017-07-19T05:20:58.608Z,68.1
2017-07-19T05:21:58.591Z,68.29
2017-07-19T05:22:58.568Z,68.39
2017-07-19T05:23:58.562Z,67.91
2017-07-19T05:24:58.547Z,67.46
2017-07-19T05:25:58.514Z,67.27
2017-07-19T05:26:58.502Z,66.78
2017-07-19T05:27:58.491Z,66.88
2017-07-19T05:28:58.466Z,66.69
2017-07-19T05:29:58.447Z,66.78
2017-07-19T05:30:58.436Z,66.3
2017-07-19T05:31:58.413Z,66.2
2017-07-19T05:32:58.100Z,66.4
2017-07-19T05:33:58.382Z,66.69
2017-07-19T05:34:58.367Z,66.49
2017-07-19T05:35:58.350Z,66.4
2017-07-19T05:36:58.333Z,65.85
2017-07-19T05:37:58.320Z,64.69
2017-07-19T05:38:58.302Z,64.63
2017-07-19T05:39:58.287Z,64.34
2017-07-19T05:40:58.265Z,64.05
2017-07-19T05:41:58.261Z,62.89
2017-07-19T05:42:58.234Z,62.82
2017-07-19T05:43:58.220Z,62.24
2017-07-19T05:44:57.904Z,62.05
2017-07-19T05:45:58.195Z,62.63
2017-07-19T05:46:58.182Z,62.7
2017-07-19T05:47:58.156Z,62.53
2017-07-19T05:48:58.141Z,62.15
2017-07-19T05:49:58.137Z,62.24
2017-07-19T05:50:57.806Z,62.05
2017-07-19T05:51:58.096Z,62.05
2017-07-19T05:52:58.075Z,60.92
2017-07-19T05:53:58.061Z,61.5
2017-07-19T05:54:58.049Z,61.79
2017-07-19T05:55:58.037Z,61.69
2017-07-19T05:56:58.015Z,60.82
2017-07-19T05:57:58.001Z,61.02
2017-07-19T05:58:58.034Z,60.44
2017-07-19T05:59:57.969Z,60.66
2017-07-19T06:00:57.961Z,60.34
2017-07-19T06:01:57.942Z,61.02
2017-07-19T06:02:57.623Z,61.21
2017-07-19T06:03:57.908Z,60.53
2017-07-19T06:04:57.941Z,60.72
2017-07-19T06:05:57.579Z,60.34
2017-07-19T06:06:57.866Z,60.53
2017-07-19T06:07:57.847Z,59.86
2017-07-19T06:08:57.830Z,60.24
2017-07-19T06:09:57.820Z,60.24
2017-07-19T06:10:57.503Z,59.98
2017-07-19T06:11:57.489Z,58.92
2017-07-19T06:12:57.783Z,59.31
2017-07-19T06:13:57.763Z,59.4
2017-07-19T06:14:57.453Z,59.89
2017-07-19T06:15:57.790Z,59.79
2017-07-19T06:16:57.720Z,59.01
2017-07-19T06:17:57.718Z,59.31
2017-07-19T06:18:57.696Z,58.92
2017-07-19T06:19:57.672Z,59.05
2017-07-19T06:20:57.661Z,58.85
2017-07-19T06:21:57.640Z,58.37
2017-07-19T06:22:57.637Z,58.47
2017-07-19T06:23:57.615Z,58.49
2017-07-19T06:24:57.654Z,57.62
2017-07-19T06:25:57.589Z,57.55
2017-07-19T06:26:57.575Z,56.49
2017-07-19T06:27:57.556Z,56.75
2017-07-19T06:28:57.555Z,56.94
2017-07-19T06:29:57.532Z,57.71
2017-07-19T06:30:57.521Z,57.69
2017-07-19T06:31:57.203Z,58.07
2017-07-19T06:32:57.502Z,57.98
2017-07-19T06:33:57.178Z,57.81
2017-07-19T06:34:57.460Z,58.07
2017-07-19T06:35:57.444Z,58.17
2017-07-19T06:36:57.442Z,58.47
2017-07-19T06:37:57.427Z,58.11
2017-07-19T06:38:57.425Z,57.71
2017-07-19T06:39:57.391Z,57.62
2017-07-19T06:40:57.429Z,57.62
2017-07-19T06:41:57.370Z,57.62
2017-07-19T06:42:57.352Z,56.94
2017-07-19T06:43:57.041Z,56.94
2017-07-19T06:44:57.327Z,56.97
2017-07-19T06:45:57.314Z,56.39
2017-07-19T06:46:57.313Z,55.62
2017-07-19T06:47:57.288Z,55.44
2017-07-19T06:48:57.275Z,55.64
2017-07-19T06:49:57.258Z,55.62
2017-07-19T06:50:57.250Z,55.64
2017-07-19T06:51:57.231Z,55.26
2017-07-19T06:52:57.232Z,54.96
2017-07-19T06:53:57.209Z,54.8
2017-07-19T06:54:57.201Z,54.02
2017-07-19T06:55:57.183Z,53.92
2017-07-19T06:56:57.169Z,53.27
2017-07-19T06:57:57.208Z,52.52
2017-07-19T06:58:57.147Z,52.03
2017-07-19T06:59:57.131Z,52.33
2017-07-19T07:00:57.120Z,51.55
2017-07-19T07:01:57.108Z,51.18
2017-07-19T07:02:57.096Z,51.65
2017-07-19T07:03:57.083Z,51.57
2017-07-19T07:04:57.070Z,50.99
2017-07-19T07:05:57.063Z,50.89
2017-07-19T07:06:57.047Z,50.63
2017-07-19T07:07:57.036Z,50.53
2017-07-19T07:08:57.031Z,49.97
2017-07-19T07:09:57.012Z,49.39
2017-07-19T07:10:57.015Z,49.29
2017-07-19T07:11:56.991Z,49.39
2017-07-19T07:12:56.979Z,49.37
2017-07-19T07:13:56.979Z,50.24
2017-07-19T07:14:56.965Z,49.95
2017-07-19T07:15:56.947Z,50.43
2017-07-19T07:16:56.950Z,50.04
2017-07-19T07:17:56.925Z,49.97
2017-07-19T07:18:56.915Z,49.19
2017-07-19T07:19:56.901Z,49.49
2017-07-19T07:20:56.896Z,49.39
2017-07-19T07:21:56.884Z,49.1
2017-07-19T07:22:56.866Z,49.49
2017-07-19T07:23:56.859Z,50.14
2017-07-19T07:24:56.895Z,50.63
2017-07-19T07:25:56.842Z,50.63
2017-07-19T07:26:56.843Z,50.53
2017-07-19T07:27:56.820Z,50.63
2017-07-19T07:28:56.803Z,50.63
2017-07-19T07:29:56.793Z,50.34
2017-07-19T07:30:56.783Z,50.14
2017-07-19T07:31:56.768Z,49.87
2017-07-19T07:32:56.459Z,49.02
2017-07-19T07:33:56.746Z,49.9
2017-07-19T07:34:56.744Z,50.26
2017-07-19T07:35:56.726Z,50.43
2017-07-19T07:36:56.729Z,50.43
2017-07-19T07:37:56.705Z,49.68
2017-07-19T07:38:56.696Z,49.51
2017-07-19T07:39:56.691Z,49.02
2017-07-19T07:40:56.673Z,48.46
2017-07-19T07:41:56.363Z,47.8
2017-07-19T07:42:56.659Z,47.8
2017-07-19T07:43:56.648Z,47.71
2017-07-19T07:44:56.634Z,48.46
2017-07-19T07:45:56.624Z,48.63
2017-07-19T07:46:56.619Z,48.36
2017-07-19T07:47:56.655Z,48.27
2017-07-19T07:48:56.596Z,48.36
2017-07-19T07:49:56.590Z,47.78
2017-07-19T07:50:56.575Z,48.46
2017-07-19T07:51:56.567Z,47.71
2017-07-19T07:52:56.549Z,47.8
2017-07-19T07:53:56.540Z,48.1
2017-07-19T07:54:56.232Z,47.61
2017-07-19T07:55:56.517Z,47.8
2017-07-19T07:56:56.514Z,47.9
2017-07-19T07:57:56.500Z,48
2017-07-19T07:58:56.491Z,48
2017-07-19T07:59:56.480Z,48
2017-07-19T08:00:56.525Z,49.05
2017-07-19T08:01:56.461Z,49.32
2017-07-19T08:02:56.458Z,48.85
2017-07-19T08:03:56.451Z,47.8
2017-07-19T08:04:56.128Z,48
2017-07-19T08:05:56.423Z,47.44
2017-07-19T08:06:56.417Z,47.52
2017-07-19T08:07:56.402Z,48.46
2017-07-19T08:08:56.409Z,49.15
2017-07-19T08:09:56.379Z,48.27
2017-07-19T08:10:56.377Z,48.56
2017-07-19T08:11:56.364Z,49.05
2017-07-19T08:12:56.352Z,49.02
2017-07-19T08:13:56.346Z,48.95
2017-07-19T08:14:56.343Z,47.88
2017-07-19T08:15:56.324Z,47.61
2017-07-19T08:16:56.310Z,48.27
2017-07-19T08:17:56.000Z,48.93
2017-07-19T08:18:56.293Z,48.93
2017-07-19T08:19:56.278Z,49.15
2017-07-19T08:20:56.269Z,47.42
2017-07-19T08:21:56.266Z,47.52
2017-07-19T08:22:56.249Z,46.64
2017-07-19T08:23:56.246Z,46.78
2017-07-19T08:24:56.238Z,46.2
2017-07-19T08:25:56.232Z,45.44
2017-07-19T08:26:56.212Z,44.97
2017-07-19T08:27:56.212Z,44.21
2017-07-19T08:28:56.199Z,43.95
2017-07-19T08:29:56.204Z,43.55
2017-07-19T08:30:56.180Z,43.75
2017-07-19T08:31:56.167Z,43.85
2017-07-19T08:32:56.161Z,43.36
2017-07-19T08:33:56.199Z,44.02
2017-07-19T08:34:56.142Z,44.6
2017-07-19T08:35:56.134Z,44.68
2017-07-19T08:36:56.125Z,44.68
2017-07-19T08:37:56.117Z,45.07
2017-07-19T08:38:56.159Z,44.85
2017-07-19T08:39:56.104Z,44.48
2017-07-19T08:40:56.087Z,44.68
2017-07-19T08:41:56.086Z,44.68
2017-07-19T08:42:56.073Z,45.07
2017-07-19T08:43:56.067Z,44.97
2017-07-19T08:44:56.057Z,45.65
2017-07-19T08:45:56.046Z,45.92
2017-07-19T08:46:56.037Z,47.07
2017-07-19T08:47:56.038Z,46.59
2017-07-19T08:48:56.019Z,47.17
2017-07-19T08:49:56.006Z,46.97
2017-07-19T08:50:55.999Z,46.88
2017-07-19T08:51:55.998Z,46.78
2017-07-19T08:52:55.982Z,47.66
2017-07-19T08:53:55.983Z,48.05
2017-07-19T08:54:55.964Z,47.66
2017-07-19T08:55:55.956Z,47.56
2017-07-19T08:56:55.947Z,46.49
2017-07-19T08:57:55.934Z,46.51
2017-07-19T08:58:55.928Z,46.04
2017-07-19T08:59:55.916Z,45.75
2017-07-19T09:00:55.907Z,45
2017-07-19T09:01:55.899Z,44.73
2017-07-19T09:02:55.885Z,44.43
2017-07-19T09:03:55.877Z,44.53
2017-07-19T09:04:55.862Z,45.12
2017-07-19T09:05:55.872Z,46.14
2017-07-19T09:06:55.851Z,46.9
2017-07-19T09:07:55.842Z,47.75
2017-07-19T09:08:55.829Z,47.95
2017-07-19T09:09:55.816Z,47.36
2017-07-19T09:10:55.806Z,46.78
2017-07-19T09:11:55.807Z,46.78
2017-07-19T09:12:55.787Z,46.22
2017-07-19T09:13:55.778Z,46.41
2017-07-19T09:14:55.777Z,46.41
2017-07-19T09:15:55.758Z,46.12
2017-07-19T09:16:55.757Z,46.14
2017-07-19T09:17:55.743Z,46.04
2017-07-19T09:18:55.779Z,46.44
2017-07-19T09:19:55.724Z,46.9
2017-07-19T09:20:55.725Z,46.8
2017-07-19T09:21:55.709Z,46.8
2017-07-19T09:22:55.810Z,46.8
2017-07-19T09:23:55.686Z,47.27
2017-07-19T09:24:55.675Z,47.95
2017-07-19T09:25:55.670Z,47.75
2017-07-19T09:26:55.667Z,47.75
2017-07-19T09:27:55.653Z,47.85
2017-07-19T09:28:55.637Z,47.75
2017-07-19T09:29:55.626Z,47.46
2017-07-19T09:30:55.666Z,47.19
2017-07-19T09:31:55.614Z,46.8
2017-07-19T09:32:55.604Z,46.8
2017-07-19T09:33:55.643Z,46.73
2017-07-19T09:34:55.581Z,46.63
2017-07-19T09:35:55.570Z,46.44
2017-07-19T09:36:55.561Z,45.68
2017-07-19T09:37:55.557Z,45.29
2017-07-19T09:38:55.547Z,44.82
2017-07-19T09:39:55.535Z,44.34
2017-07-19T09:40:55.576Z,44.26
2017-07-19T09:41:55.519Z,43.87
2017-07-19T09:42:55.517Z,43.87
2017-07-19T09:43:55.499Z,44.45
2017-07-19T09:44:55.189Z,45.02
2017-07-19T09:45:55.482Z,45.31
2017-07-19T09:46:55.476Z,45.41
2017-07-19T09:47:55.526Z,45.31
2017-07-19T09:48:55.462Z,44.73
2017-07-19T09:49:55.453Z,44.63
2017-07-19T09:50:55.443Z,44.35
2017-07-19T09:51:55.437Z,44.43
2017-07-19T09:52:55.139Z,44.26
2017-07-19T09:53:55.418Z,44.06
2017-07-19T09:54:55.407Z,43.59
2017-07-19T09:55:55.405Z,43.49
2017-07-19T09:56:55.392Z,43.2
2017-07-19T09:57:55.385Z,42.81
2017-07-19T09:58:55.384Z,42.54
2017-07-19T09:59:55.376Z,42.54
2017-07-19T10:00:55.367Z,42.74
2017-07-19T10:01:55.366Z,43.03
2017-07-19T10:02:55.352Z,41.96
2017-07-19T10:03:55.348Z,41.88
2017-07-19T10:04:55.336Z,41.78
2017-07-19T10:05:55.326Z,41.97
2017-07-19T10:06:55.325Z,42.44
2017-07-19T10:07:55.315Z,42.64
2017-07-19T10:08:55.310Z,42.83
2017-07-19T10:09:55.299Z,42.42
2017-07-19T10:10:55.293Z,42.35
2017-07-19T10:11:55.304Z,42.15
2017-07-19T10:12:55.278Z,42.05
2017-07-19T10:13:55.276Z,42.25
2017-07-19T10:14:55.262Z,42.35
2017-07-19T10:15:55.256Z,42.15
2017-07-19T10:16:55.251Z,41.86
2017-07-19T10:17:55.293Z,41.49
2017-07-19T10:18:55.242Z,41.49
2017-07-19T10:19:55.225Z,41.58
2017-07-19T10:20:55.234Z,41.8
2017-07-19T10:21:55.221Z,41.5
2017-07-19T10:22:55.209Z,41.78
2017-07-19T10:23:54.902Z,41.88
2017-07-19T10:24:55.198Z,41.68
2017-07-19T10:25:55.193Z,41.8
2017-07-19T10:26:55.185Z,41.31
2017-07-19T10:27:55.179Z,40.84
2017-07-19T10:28:55.177Z,40.35
2017-07-19T10:29:55.164Z,40.45
2017-07-19T10:30:55.155Z,40.56
2017-07-19T10:31:54.903Z,40.64
2017-07-19T10:32:55.147Z,41.62
2017-07-19T10:33:55.154Z,41.5
2017-07-19T10:34:55.141Z,41.41
2017-07-19T10:35:55.133Z,41.02
2017-07-19T10:36:55.125Z,40.64
2017-07-19T10:37:55.119Z,40.64
2017-07-19T10:38:55.121Z,40.64
2017-07-19T10:39:55.115Z,40.94
2017-07-19T10:40:55.161Z,40.94
2017-07-19T10:41:55.098Z,40.64
2017-07-19T10:42:55.107Z,40.74
2017-07-19T10:43:55.137Z,40.55
2017-07-19T10:44:55.083Z,41.33
2017-07-19T10:45:55.078Z,41.52
2017-07-19T10:46:55.066Z,41.33
2017-07-19T10:47:55.066Z,40.84
2017-07-19T10:48:55.054Z,40.56
2017-07-19T10:49:55.050Z,40.86
2017-07-19T10:50:55.044Z,41.62
2017-07-19T10:51:55.044Z,41.6
2017-07-19T10:52:55.039Z,41.33
2017-07-19T10:53:55.033Z,40.95
2017-07-19T10:54:55.023Z,40.76
2017-07-19T10:55:55.023Z,40.86
2017-07-19T10:56:55.010Z,40.48
2017-07-19T10:57:55.009Z,39.51
2017-07-19T10:58:55.032Z,40.19
2017-07-19T10:59:54.994Z,40.47
2017-07-19T11:00:54.995Z,40.29
2017-07-19T11:01:54.984Z,39.82
2017-07-19T11:02:54.979Z,39.82
2017-07-19T11:03:54.670Z,40.78
2017-07-19T11:04:54.982Z,40.68
2017-07-19T11:05:54.964Z,40.78
2017-07-19T11:06:54.959Z,40.48
2017-07-19T11:07:54.954Z,40.39
2017-07-19T11:08:54.956Z,40.58
2017-07-19T11:09:54.937Z,40.88
2017-07-19T11:10:54.935Z,41.08
2017-07-19T11:11:54.932Z,41.15
2017-07-19T11:12:54.923Z,41.55
2017-07-19T11:13:54.928Z,41.74
2017-07-19T11:14:54.914Z,41.55
2017-07-19T11:15:54.933Z,41.15
2017-07-19T11:16:54.909Z,41.27
2017-07-19T11:17:54.903Z,41.35
2017-07-19T11:18:54.891Z,41.64
2017-07-19T11:19:54.883Z,42.31
2017-07-19T11:20:54.879Z,43.27
2017-07-19T11:21:54.876Z,43.93
2017-07-19T11:22:54.869Z,44.62
2017-07-19T11:23:54.871Z,44.79
2017-07-19T11:24:54.859Z,45.36
2017-07-19T11:25:54.849Z,45.84
2017-07-19T11:26:54.841Z,46.04
2017-07-19T11:27:54.844Z,46.5
2017-07-19T11:28:54.822Z,46.21
2017-07-19T11:29:54.818Z,46.21
2017-07-19T11:30:54.805Z,47.19
2017-07-19T11:31:54.801Z,46.68
2017-07-19T11:32:54.788Z,47.07
2017-07-19T11:33:54.777Z,47.27
2017-07-19T11:34:54.788Z,47.07
2017-07-19T11:35:54.769Z,47.66
2017-07-19T11:36:54.745Z,47.95
2017-07-19T11:37:54.734Z,48.24
2017-07-19T11:38:54.726Z,48.44
2017-07-19T11:39:54.709Z,48.14
2017-07-19T11:40:54.697Z,47.95
2017-07-19T11:41:54.687Z,47.95
2017-07-19T11:42:54.390Z,48.44
2017-07-19T11:43:54.668Z,48.44
2017-07-19T11:44:54.657Z,47.87
2017-07-19T11:45:54.643Z,46.89
2017-07-19T11:46:54.629Z,47.19
2017-07-19T11:47:54.618Z,48.07
2017-07-19T11:48:54.608Z,47.85
2017-07-19T11:49:54.589Z,47.67
2017-07-19T11:50:54.605Z,46.99
2017-07-19T11:51:54.571Z,47.77
2017-07-19T11:52:54.569Z,47.95
2017-07-19T11:53:54.541Z,48.26
2017-07-19T11:54:54.533Z,47.87
2017-07-19T11:55:54.519Z,47.87
2017-07-19T11:56:54.511Z,47.67
2017-07-19T11:57:54.488Z,47.77
2017-07-19T11:58:54.480Z,47.87
2017-07-19T11:59:54.465Z,47.97
2017-07-19T12:00:54.452Z,47.87
2017-07-19T12:01:54.440Z,47.85
2017-07-19T12:02:54.428Z,47.87
2017-07-19T12:03:54.412Z,48.07
2017-07-19T12:04:54.404Z,47.19
2017-07-19T12:05:54.388Z,46.89
2017-07-19T12:06:54.381Z,46.8
2017-07-19T12:07:54.359Z,46.6
2017-07-19T12:08:54.346Z,46.8
2017-07-19T12:09:54.343Z,46.8
2017-07-19T12:10:54.326Z,47.19
2017-07-19T12:11:54.308Z,47.19
2017-07-19T12:12:54.301Z,46.89
2017-07-19T12:13:54.284Z,46.8
2017-07-19T12:14:54.283Z,46.31
2017-07-19T12:15:54.262Z,46.99
2017-07-19T12:16:54.262Z,46.8
2017-07-19T12:17:54.245Z,46.82
2017-07-19T12:18:54.219Z,47.11
2017-07-19T12:19:54.210Z,46.72
2017-07-19T12:20:54.195Z,46.23
2017-07-19T12:21:54.192Z,46.43
2017-07-19T12:22:54.165Z,46.53
2017-07-19T12:23:54.162Z,46.53
2017-07-19T12:24:54.145Z,47.11
2017-07-19T12:25:54.135Z,46.23
2017-07-19T12:26:54.155Z,46.72
2017-07-19T12:27:54.107Z,46.33
2017-07-19T12:28:54.093Z,46.06
2017-07-19T12:29:54.083Z,45.86
2017-07-19T12:30:54.071Z,45.86
2017-07-19T12:31:54.054Z,45.18
2017-07-19T12:32:54.040Z,45.47
2017-07-19T12:33:54.035Z,45.97
2017-07-19T12:34:54.018Z,46.06
2017-07-19T12:35:53.709Z,45.67
2017-07-19T12:36:53.992Z,45.67
2017-07-19T12:37:53.977Z,45.89
2017-07-19T12:38:53.968Z,46.37
2017-07-19T12:39:53.958Z,45.76
2017-07-19T12:40:53.945Z,45.37
2017-07-19T12:41:53.928Z,45.37
2017-07-19T12:42:53.924Z,45.76
2017-07-19T12:43:53.970Z,45.57
2017-07-19T12:44:53.928Z,45.08
2017-07-19T12:45:53.877Z,44.62
2017-07-19T12:46:53.921Z,44.03
2017-07-19T12:47:53.853Z,43.84
2017-07-19T12:48:53.847Z,43.54
2017-07-19T12:49:53.825Z,43.34
2017-07-19T12:50:53.815Z,43.54
2017-07-19T12:51:53.808Z,43.24
2017-07-19T12:52:53.795Z,43.73
2017-07-19T12:53:53.783Z,43.73